sensor_id;sensor_type;location;lat;lon;timestamp;P1;durP1;ratioP1;P2;durP2;ratioP2
15354;SDS011;7777;52.254;9.618;2022-11-20T00:01:10;6.30;;;4.10;;
15354;SDS011;7777;52.254;9.618;2022-11-20T00:03:47;5.97;;;3.53;;
15354;SDS011;7777;52.254;9.618;2022-11-20T00:06:16;6.00;;;3.43;;
15354;SDS011;7777;52.254;9.618;2022-11-20T00:08:44;9.67;;;3.50;;
15354;SDS011;7777;52.254;9.618;2022-11-20T00:11:12;7.07;;;3.43;;
15354;SDS011;7777;52.254;9.618;2022-11-20T00:13:41;5.93;;;3.50;;
15354;SDS011;7777;52.254;9.618;2022-11-20T00:16:12;9.10;;;4.00;;
15354;SDS011;7777;52.254;9.618;2022-11-20T00:18:40;5.53;;;3.20;;
15354;SDS011;7777;52.254;9.618;2022-11-20T00:21:14;5.40;;;3.40;;
15354;SDS011;7777;52.254;9.618;2022-11-20T00:23:43;5.97;;;3.57;;
15354;SDS011;7777;52.254;9.618;2022-11-20T00:26:11;4.83;;;3.23;;
15354;SDS011;7777;52.254;9.618;2022-11-20T00:28:40;6.80;;;3.07;;
15354;SDS011;7777;52.254;9.618;2022-11-20T00:31:07;6.30;;;3.30;;
15354;SDS011;7777;52.254;9.618;2022-11-20T00:33:38;5.00;;;2.97;;
15354;SDS011;7777;52.254;9.618;2022-11-20T00:36:05;7.20;;;3.30;;
15354;SDS011;7777;52.254;9.618;2022-11-20T00:38:42;7.20;;;3.70;;
15354;SDS011;7777;52.254;9.618;2022-11-20T00:41:10;5.90;;;3.60;;
15354;SDS011;7777;52.254;9.618;2022-11-20T00:43:38;7.13;;;3.53;;
15354;SDS011;7777;52.254;9.618;2022-11-20T00:46:23;7.03;;;3.47;;
15354;SDS011;7777;52.254;9.618;2022-11-20T00:48:51;7.43;;;3.00;;
15354;SDS011;7777;52.254;9.618;2022-11-20T00:51:18;5.63;;;3.23;;
15354;SDS011;7777;52.254;9.618;2022-11-20T00:53:46;5.20;;;3.10;;
15354;SDS011;7777;52.254;9.618;2022-11-20T00:56:14;4.00;;;3.10;;
15354;SDS011;7777;52.254;9.618;2022-11-20T00:58:43;7.60;;;3.63;;
15354;SDS011;7777;52.254;9.618;2022-11-20T01:01:12;5.47;;;3.33;;
15354;SDS011;7777;52.254;9.618;2022-11-20T01:03:45;7.30;;;4.03;;
15354;SDS011;7777;52.254;9.618;2022-11-20T01:08:48;6.83;;;3.37;;
15354;SDS011;7777;52.254;9.618;2022-11-20T01:11:17;5.13;;;3.20;;
15354;SDS011;7777;52.254;9.618;2022-11-20T01:13:46;6.10;;;3.60;;
15354;SDS011;7777;52.254;9.618;2022-11-20T01:18:49;5.43;;;3.33;;
15354;SDS011;7777;52.254;9.618;2022-11-20T01:21:21;5.40;;;3.23;;
15354;SDS011;7777;52.254;9.618;2022-11-20T01:23:53;4.33;;;2.53;;
15354;SDS011;7777;52.254;9.618;2022-11-20T01:26:21;5.37;;;2.97;;
15354;SDS011;7777;52.254;9.618;2022-11-20T01:28:49;5.17;;;2.93;;
15354;SDS011;7777;52.254;9.618;2022-11-20T01:31:16;5.13;;;3.10;;
15354;SDS011;7777;52.254;9.618;2022-11-20T01:33:46;5.57;;;3.50;;
15354;SDS011;7777;52.254;9.618;2022-11-20T01:36:15;7.83;;;3.07;;
15354;SDS011;7777;52.254;9.618;2022-11-20T01:38:42;7.20;;;3.17;;
15354;SDS011;7777;52.254;9.618;2022-11-20T01:41:09;5.87;;;3.67;;
15354;SDS011;7777;52.254;9.618;2022-11-20T01:43:57;5.83;;;3.13;;
15354;SDS011;7777;52.254;9.618;2022-11-20T01:46:24;5.83;;;3.30;;
15354;SDS011;7777;52.254;9.618;2022-11-20T01:51:50;5.90;;;3.93;;
15354;SDS011;7777;52.254;9.618;2022-11-20T01:54:32;6.53;;;4.20;;
15354;SDS011;7777;52.254;9.618;2022-11-20T01:57:06;8.30;;;4.50;;
15354;SDS011;7777;52.254;9.618;2022-11-20T01:59:36;7.37;;;4.73;;
15354;SDS011;7777;52.254;9.618;2022-11-20T02:02:09;7.70;;;5.00;;
15354;SDS011;7777;52.254;9.618;2022-11-20T02:04:35;7.37;;;4.53;;
15354;SDS011;7777;52.254;9.618;2022-11-20T02:07:01;9.77;;;5.53;;
15354;SDS011;7777;52.254;9.618;2022-11-20T02:09:29;8.37;;;5.10;;
15354;SDS011;7777;52.254;9.618;2022-11-20T02:11:55;7.93;;;4.73;;
15354;SDS011;7777;52.254;9.618;2022-11-20T02:14:22;7.27;;;5.07;;
15354;SDS011;7777;52.254;9.618;2022-11-20T02:16:49;8.80;;;4.97;;
15354;SDS011;7777;52.254;9.618;2022-11-20T02:19:27;8.60;;;4.73;;
15354;SDS011;7777;52.254;9.618;2022-11-20T02:22:06;9.47;;;5.33;;
15354;SDS011;7777;52.254;9.618;2022-11-20T02:24:44;9.57;;;5.07;;
15354;SDS011;7777;52.254;9.618;2022-11-20T02:27:13;8.00;;;4.93;;
15354;SDS011;7777;52.254;9.618;2022-11-20T02:30:14;10.80;;;5.37;;
15354;SDS011;7777;52.254;9.618;2022-11-20T02:32:36;9.10;;;5.70;;
15354;SDS011;7777;52.254;9.618;2022-11-20T02:35:07;10.23;;;5.90;;
15354;SDS011;7777;52.254;9.618;2022-11-20T02:37:47;9.80;;;5.93;;
15354;SDS011;7777;52.254;9.618;2022-11-20T02:40:16;9.40;;;5.87;;
15354;SDS011;7777;52.254;9.618;2022-11-20T02:42:42;9.13;;;6.00;;
15354;SDS011;7777;52.254;9.618;2022-11-20T02:45:08;10.00;;;5.67;;
15354;SDS011;7777;52.254;9.618;2022-11-20T02:47:34;9.57;;;5.90;;
15354;SDS011;7777;52.254;9.618;2022-11-20T02:50:00;10.03;;;5.77;;
15354;SDS011;7777;52.254;9.618;2022-11-20T02:52:26;8.73;;;5.83;;
15354;SDS011;7777;52.254;9.618;2022-11-20T02:54:52;9.87;;;6.07;;
15354;SDS011;7777;52.254;9.618;2022-11-20T02:57:18;9.43;;;5.97;;
15354;SDS011;7777;52.254;9.618;2022-11-20T02:59:44;9.67;;;6.03;;
15354;SDS011;7777;52.254;9.618;2022-11-20T03:02:09;10.93;;;6.70;;
15354;SDS011;7777;52.254;9.618;2022-11-20T03:04:35;11.03;;;7.07;;
15354;SDS011;7777;52.254;9.618;2022-11-20T03:07:01;10.10;;;6.53;;
15354;SDS011;7777;52.254;9.618;2022-11-20T03:09:27;9.33;;;5.87;;
15354;SDS011;7777;52.254;9.618;2022-11-20T03:11:52;8.47;;;6.37;;
15354;SDS011;7777;52.254;9.618;2022-11-20T03:14:18;10.13;;;7.00;;
15354;SDS011;7777;52.254;9.618;2022-11-20T03:16:44;10.17;;;6.17;;
15354;SDS011;7777;52.254;9.618;2022-11-20T03:19:10;9.30;;;5.87;;
15354;SDS011;7777;52.254;9.618;2022-11-20T03:21:37;10.47;;;6.47;;
15354;SDS011;7777;52.254;9.618;2022-11-20T03:24:03;9.23;;;5.23;;
15354;SDS011;7777;52.254;9.618;2022-11-20T03:26:29;8.50;;;5.33;;
15354;SDS011;7777;52.254;9.618;2022-11-20T03:29:00;8.90;;;5.60;;
15354;SDS011;7777;52.254;9.618;2022-11-20T03:31:29;12.03;;;5.90;;
15354;SDS011;7777;52.254;9.618;2022-11-20T03:33:57;9.87;;;5.33;;
15354;SDS011;7777;52.254;9.618;2022-11-20T03:36:24;7.90;;;4.57;;
15354;SDS011;7777;52.254;9.618;2022-11-20T03:38:50;8.40;;;4.53;;
15354;SDS011;7777;52.254;9.618;2022-11-20T03:41:20;6.47;;;4.10;;
15354;SDS011;7777;52.254;9.618;2022-11-20T03:43:51;9.10;;;4.40;;
15354;SDS011;7777;52.254;9.618;2022-11-20T03:46:26;8.50;;;4.80;;
15354;SDS011;7777;52.254;9.618;2022-11-20T03:48:53;6.80;;;4.23;;
15354;SDS011;7777;52.254;9.618;2022-11-20T03:53:48;7.20;;;4.73;;
15354;SDS011;7777;52.254;9.618;2022-11-20T03:56:17;8.93;;;5.50;;
15354;SDS011;7777;52.254;9.618;2022-11-20T03:58:47;9.80;;;5.90;;
15354;SDS011;7777;52.254;9.618;2022-11-20T04:01:14;10.53;;;5.73;;
15354;SDS011;7777;52.254;9.618;2022-11-20T04:03:51;9.67;;;5.00;;
15354;SDS011;7777;52.254;9.618;2022-11-20T04:06:19;8.70;;;5.17;;
15354;SDS011;7777;52.254;9.618;2022-11-20T04:08:48;9.90;;;6.10;;
15354;SDS011;7777;52.254;9.618;2022-11-20T04:13:45;9.77;;;5.63;;
15354;SDS011;7777;52.254;9.618;2022-11-20T04:16:14;8.27;;;5.43;;
15354;SDS011;7777;52.254;9.618;2022-11-20T04:18:40;8.57;;;5.33;;
15354;SDS011;7777;52.254;9.618;2022-11-20T04:21:06;11.63;;;5.77;;
15354;SDS011;7777;52.254;9.618;2022-11-20T04:23:33;7.93;;;5.33;;
15354;SDS011;7777;52.254;9.618;2022-11-20T04:26:03;10.57;;;5.37;;
15354;SDS011;7777;52.254;9.618;2022-11-20T04:28:34;10.20;;;6.30;;
15354;SDS011;7777;52.254;9.618;2022-11-20T04:31:11;10.13;;;5.63;;
15354;SDS011;7777;52.254;9.618;2022-11-20T04:33:42;8.80;;;5.23;;
15354;SDS011;7777;52.254;9.618;2022-11-20T04:36:13;9.30;;;4.87;;
15354;SDS011;7777;52.254;9.618;2022-11-20T04:38:41;9.40;;;5.47;;
15354;SDS011;7777;52.254;9.618;2022-11-20T04:41:08;8.60;;;5.63;;
15354;SDS011;7777;52.254;9.618;2022-11-20T04:43:47;8.77;;;5.17;;
15354;SDS011;7777;52.254;9.618;2022-11-20T04:46:15;9.20;;;4.87;;
15354;SDS011;7777;52.254;9.618;2022-11-20T04:48:43;8.73;;;5.10;;
15354;SDS011;7777;52.254;9.618;2022-11-20T04:51:09;11.47;;;4.90;;
15354;SDS011;7777;52.254;9.618;2022-11-20T04:53:35;7.63;;;5.17;;
15354;SDS011;7777;52.254;9.618;2022-11-20T04:56:01;10.17;;;4.70;;
15354;SDS011;7777;52.254;9.618;2022-11-20T04:58:30;7.47;;;4.30;;
15354;SDS011;7777;52.254;9.618;2022-11-20T05:03:38;7.57;;;3.77;;
15354;SDS011;7777;52.254;9.618;2022-11-20T05:06:08;6.73;;;4.13;;
15354;SDS011;7777;52.254;9.618;2022-11-20T05:08:36;7.77;;;4.33;;
15354;SDS011;7777;52.254;9.618;2022-11-20T05:11:03;6.03;;;3.47;;
15354;SDS011;7777;52.254;9.618;2022-11-20T05:13:42;7.10;;;4.60;;
15354;SDS011;7777;52.254;9.618;2022-11-20T05:16:09;8.40;;;4.87;;
15354;SDS011;7777;52.254;9.618;2022-11-20T05:18:43;7.13;;;4.07;;
15354;SDS011;7777;52.254;9.618;2022-11-20T05:21:10;8.53;;;5.20;;
15354;SDS011;7777;52.254;9.618;2022-11-20T05:23:37;9.23;;;5.80;;
15354;SDS011;7777;52.254;9.618;2022-11-20T05:26:04;9.50;;;5.57;;
15354;SDS011;7777;52.254;9.618;2022-11-20T05:28:32;12.40;;;6.07;;
15354;SDS011;7777;52.254;9.618;2022-11-20T05:31:09;8.53;;;4.63;;
15354;SDS011;7777;52.254;9.618;2022-11-20T05:33:39;10.03;;;5.37;;
15354;SDS011;7777;52.254;9.618;2022-11-20T05:36:06;8.87;;;5.70;;
15354;SDS011;7777;52.254;9.618;2022-11-20T05:38:33;7.20;;;4.50;;
15354;SDS011;7777;52.254;9.618;2022-11-20T05:41:12;9.80;;;5.10;;
15354;SDS011;7777;52.254;9.618;2022-11-20T05:43:41;8.37;;;5.40;;
15354;SDS011;7777;52.254;9.618;2022-11-20T05:46:09;7.80;;;4.90;;
15354;SDS011;7777;52.254;9.618;2022-11-20T05:48:39;7.23;;;4.23;;
15354;SDS011;7777;52.254;9.618;2022-11-20T05:51:07;8.73;;;5.07;;
15354;SDS011;7777;52.254;9.618;2022-11-20T05:53:35;7.17;;;4.80;;
15354;SDS011;7777;52.254;9.618;2022-11-20T05:56:02;8.80;;;5.10;;
15354;SDS011;7777;52.254;9.618;2022-11-20T05:58:37;7.53;;;4.60;;
15354;SDS011;7777;52.254;9.618;2022-11-20T06:01:08;7.97;;;5.30;;
15354;SDS011;7777;52.254;9.618;2022-11-20T06:03:46;10.50;;;6.13;;
15354;SDS011;7777;52.254;9.618;2022-11-20T06:06:13;10.50;;;6.40;;
15354;SDS011;7777;52.254;9.618;2022-11-20T06:08:40;11.97;;;6.57;;
15354;SDS011;7777;52.254;9.618;2022-11-20T06:11:10;9.93;;;6.80;;
15354;SDS011;7777;52.254;9.618;2022-11-20T06:13:38;11.67;;;6.63;;
15354;SDS011;7777;52.254;9.618;2022-11-20T06:16:04;10.47;;;6.67;;
15354;SDS011;7777;52.254;9.618;2022-11-20T06:18:31;9.83;;;6.07;;
15354;SDS011;7777;52.254;9.618;2022-11-20T06:21:00;11.47;;;6.10;;
15354;SDS011;7777;52.254;9.618;2022-11-20T06:23:33;11.20;;;6.00;;
15354;SDS011;7777;52.254;9.618;2022-11-20T06:26:06;11.57;;;5.73;;
15354;SDS011;7777;52.254;9.618;2022-11-20T06:28:38;9.10;;;5.60;;
15354;SDS011;7777;52.254;9.618;2022-11-20T06:31:04;7.63;;;4.77;;
15354;SDS011;7777;52.254;9.618;2022-11-20T06:33:31;7.73;;;4.57;;
15354;SDS011;7777;52.254;9.618;2022-11-20T06:35:58;6.87;;;4.33;;
15354;SDS011;7777;52.254;9.618;2022-11-20T06:38:26;7.90;;;4.73;;
15354;SDS011;7777;52.254;9.618;2022-11-20T06:40:52;6.00;;;4.13;;
15354;SDS011;7777;52.254;9.618;2022-11-20T06:43:19;7.90;;;4.40;;
15354;SDS011;7777;52.254;9.618;2022-11-20T06:45:45;7.90;;;4.70;;
15354;SDS011;7777;52.254;9.618;2022-11-20T06:48:11;7.20;;;5.00;;
15354;SDS011;7777;52.254;9.618;2022-11-20T06:50:37;9.03;;;5.37;;
15354;SDS011;7777;52.254;9.618;2022-11-20T06:53:03;7.93;;;5.37;;
15354;SDS011;7777;52.254;9.618;2022-11-20T06:55:30;6.20;;;4.57;;
15354;SDS011;7777;52.254;9.618;2022-11-20T06:57:56;7.90;;;5.17;;
15354;SDS011;7777;52.254;9.618;2022-11-20T07:00:23;6.87;;;4.87;;
15354;SDS011;7777;52.254;9.618;2022-11-20T07:02:49;8.73;;;5.50;;
15354;SDS011;7777;52.254;9.618;2022-11-20T07:05:15;7.50;;;4.87;;
15354;SDS011;7777;52.254;9.618;2022-11-20T07:07:41;8.47;;;5.57;;
15354;SDS011;7777;52.254;9.618;2022-11-20T07:10:07;9.30;;;5.23;;
15354;SDS011;7777;52.254;9.618;2022-11-20T07:12:33;9.60;;;5.53;;
15354;SDS011;7777;52.254;9.618;2022-11-20T07:14:59;8.43;;;5.23;;
15354;SDS011;7777;52.254;9.618;2022-11-20T07:17:25;8.27;;;5.10;;
15354;SDS011;7777;52.254;9.618;2022-11-20T07:19:51;9.03;;;5.47;;
15354;SDS011;7777;52.254;9.618;2022-11-20T07:22:17;8.60;;;5.00;;
15354;SDS011;7777;52.254;9.618;2022-11-20T07:24:42;8.90;;;5.50;;
15354;SDS011;7777;52.254;9.618;2022-11-20T07:27:08;9.53;;;5.93;;
15354;SDS011;7777;52.254;9.618;2022-11-20T07:29:34;13.47;;;8.23;;
15354;SDS011;7777;52.254;9.618;2022-11-20T07:32:00;13.87;;;8.03;;
15354;SDS011;7777;52.254;9.618;2022-11-20T07:34:25;20.57;;;13.80;;
15354;SDS011;7777;52.254;9.618;2022-11-20T07:36:51;12.57;;;9.70;;
15354;SDS011;7777;52.254;9.618;2022-11-20T07:39:17;16.27;;;11.47;;
15354;SDS011;7777;52.254;9.618;2022-11-20T07:41:42;16.23;;;10.70;;
15354;SDS011;7777;52.254;9.618;2022-11-20T07:44:08;12.13;;;8.77;;
15354;SDS011;7777;52.254;9.618;2022-11-20T07:46:34;14.17;;;9.13;;
15354;SDS011;7777;52.254;9.618;2022-11-20T07:51:34;13.37;;;8.30;;
15354;SDS011;7777;52.254;9.618;2022-11-20T07:54:00;13.27;;;8.50;;
15354;SDS011;7777;52.254;9.618;2022-11-20T07:56:26;14.53;;;9.40;;
15354;SDS011;7777;52.254;9.618;2022-11-20T07:58:51;13.43;;;8.90;;
15354;SDS011;7777;52.254;9.618;2022-11-20T08:01:17;12.67;;;8.73;;
15354;SDS011;7777;52.254;9.618;2022-11-20T08:03:43;15.17;;;10.00;;
15354;SDS011;7777;52.254;9.618;2022-11-20T08:06:09;12.43;;;8.37;;
15354;SDS011;7777;52.254;9.618;2022-11-20T08:08:34;13.77;;;8.53;;
15354;SDS011;7777;52.254;9.618;2022-11-20T08:11:00;17.00;;;8.97;;
15354;SDS011;7777;52.254;9.618;2022-11-20T08:13:44;13.13;;;9.40;;
15354;SDS011;7777;52.254;9.618;2022-11-20T08:16:29;19.47;;;11.47;;
15354;SDS011;7777;52.254;9.618;2022-11-20T08:18:55;23.07;;;13.33;;
15354;SDS011;7777;52.254;9.618;2022-11-20T08:21:21;18.80;;;11.33;;
15354;SDS011;7777;52.254;9.618;2022-11-20T08:23:47;16.30;;;10.27;;
15354;SDS011;7777;52.254;9.618;2022-11-20T08:26:13;12.20;;;8.60;;
15354;SDS011;7777;52.254;9.618;2022-11-20T08:28:38;14.07;;;9.47;;
15354;SDS011;7777;52.254;9.618;2022-11-20T08:31:04;14.07;;;9.07;;
15354;SDS011;7777;52.254;9.618;2022-11-20T08:33:30;12.47;;;8.53;;
15354;SDS011;7777;52.254;9.618;2022-11-20T08:36:06;12.97;;;8.83;;
15354;SDS011;7777;52.254;9.618;2022-11-20T08:38:32;15.83;;;8.37;;
15354;SDS011;7777;52.254;9.618;2022-11-20T08:40:59;12.67;;;8.77;;
15354;SDS011;7777;52.254;9.618;2022-11-20T08:43:45;13.97;;;8.57;;
15354;SDS011;7777;52.254;9.618;2022-11-20T08:46:10;12.50;;;8.73;;
15354;SDS011;7777;52.254;9.618;2022-11-20T08:48:36;14.13;;;8.97;;
15354;SDS011;7777;52.254;9.618;2022-11-20T08:51:02;12.33;;;8.60;;
15354;SDS011;7777;52.254;9.618;2022-11-20T08:53:28;13.60;;;8.97;;
15354;SDS011;7777;52.254;9.618;2022-11-20T08:55:54;12.93;;;9.00;;
15354;SDS011;7777;52.254;9.618;2022-11-20T08:58:21;13.53;;;9.17;;
15354;SDS011;7777;52.254;9.618;2022-11-20T09:00:47;15.93;;;10.10;;
15354;SDS011;7777;52.254;9.618;2022-11-20T09:03:13;15.00;;;10.53;;
15354;SDS011;7777;52.254;9.618;2022-11-20T09:05:39;18.23;;;12.73;;
15354;SDS011;7777;52.254;9.618;2022-11-20T09:08:05;18.40;;;11.13;;
15354;SDS011;7777;52.254;9.618;2022-11-20T09:10:31;14.57;;;9.50;;
15354;SDS011;7777;52.254;9.618;2022-11-20T09:12:57;15.43;;;10.00;;
15354;SDS011;7777;52.254;9.618;2022-11-20T09:15:24;16.63;;;9.50;;
15354;SDS011;7777;52.254;9.618;2022-11-20T09:17:51;14.37;;;9.43;;
15354;SDS011;7777;52.254;9.618;2022-11-20T09:20:19;14.47;;;8.20;;
15354;SDS011;7777;52.254;9.618;2022-11-20T09:22:45;14.00;;;8.90;;
15354;SDS011;7777;52.254;9.618;2022-11-20T09:25:11;13.17;;;9.70;;
15354;SDS011;7777;52.254;9.618;2022-11-20T09:27:36;15.43;;;11.07;;
15354;SDS011;7777;52.254;9.618;2022-11-20T09:30:02;14.00;;;9.13;;
15354;SDS011;7777;52.254;9.618;2022-11-20T09:32:29;12.30;;;8.07;;
15354;SDS011;7777;52.254;9.618;2022-11-20T09:34:55;13.33;;;9.37;;
15354;SDS011;7777;52.254;9.618;2022-11-20T09:37:21;10.77;;;8.17;;
15354;SDS011;7777;52.254;9.618;2022-11-20T09:39:46;15.57;;;9.90;;
15354;SDS011;7777;52.254;9.618;2022-11-20T09:48:20;13.67;;;9.10;;
15354;SDS011;7777;52.254;9.618;2022-11-20T09:54:19;13.10;;;8.70;;
15354;SDS011;7777;52.254;9.618;2022-11-20T09:56:50;14.23;;;8.87;;
15354;SDS011;7777;52.254;9.618;2022-11-20T10:04:52;13.43;;;9.43;;
15354;SDS011;7777;52.254;9.618;2022-11-20T10:10:45;15.27;;;9.17;;
15354;SDS011;7777;52.254;9.618;2022-11-20T10:24:46;12.37;;;8.63;;
15354;SDS011;7777;52.254;9.618;2022-11-20T10:30:15;13.77;;;8.67;;
15354;SDS011;7777;52.254;9.618;2022-11-20T10:32:54;12.03;;;8.27;;
15354;SDS011;7777;52.254;9.618;2022-11-20T10:38:09;12.63;;;8.60;;
15354;SDS011;7777;52.254;9.618;2022-11-20T10:43:42;13.80;;;9.17;;
15354;SDS011;7777;52.254;9.618;2022-11-20T10:46:10;13.10;;;8.33;;
15354;SDS011;7777;52.254;9.618;2022-11-20T10:48:43;12.57;;;8.07;;
15354;SDS011;7777;52.254;9.618;2022-11-20T10:51:35;12.43;;;8.57;;
15354;SDS011;7777;52.254;9.618;2022-11-20T10:57:35;9.50;;;7.23;;
15354;SDS011;7777;52.254;9.618;2022-11-20T11:00:32;11.03;;;6.90;;
15354;SDS011;7777;52.254;9.618;2022-11-20T11:02:58;9.03;;;6.40;;
15354;SDS011;7777;52.254;9.618;2022-11-20T11:05:38;11.10;;;6.83;;
15354;SDS011;7777;52.254;9.618;2022-11-20T11:08:36;11.07;;;7.23;;
15354;SDS011;7777;52.254;9.618;2022-11-20T11:13:45;10.43;;;6.80;;
15354;SDS011;7777;52.254;9.618;2022-11-20T11:16:24;10.80;;;7.17;;
15354;SDS011;7777;52.254;9.618;2022-11-20T11:18:51;11.70;;;7.70;;
15354;SDS011;7777;52.254;9.618;2022-11-20T11:21:31;14.87;;;8.37;;
15354;SDS011;7777;52.254;9.618;2022-11-20T11:24:01;13.53;;;8.80;;
15354;SDS011;7777;52.254;9.618;2022-11-20T11:26:29;11.90;;;7.40;;
15354;SDS011;7777;52.254;9.618;2022-11-20T11:28:59;12.87;;;8.37;;
15354;SDS011;7777;52.254;9.618;2022-11-20T11:31:31;15.43;;;9.07;;
15354;SDS011;7777;52.254;9.618;2022-11-20T11:34:06;13.93;;;9.23;;
15354;SDS011;7777;52.254;9.618;2022-11-20T11:36:36;18.87;;;11.10;;
15354;SDS011;7777;52.254;9.618;2022-11-20T11:39:02;16.03;;;10.80;;
15354;SDS011;7777;52.254;9.618;2022-11-20T11:41:34;16.90;;;10.17;;
15354;SDS011;7777;52.254;9.618;2022-11-20T11:44:20;18.23;;;12.03;;
15354;SDS011;7777;52.254;9.618;2022-11-20T11:50:14;14.53;;;9.57;;
15354;SDS011;7777;52.254;9.618;2022-11-20T11:58:31;14.33;;;10.03;;
15354;SDS011;7777;52.254;9.618;2022-11-20T12:01:08;15.03;;;9.73;;
15354;SDS011;7777;52.254;9.618;2022-11-20T12:04:40;15.60;;;10.93;;
15354;SDS011;7777;52.254;9.618;2022-11-20T12:07:30;14.50;;;9.10;;
15354;SDS011;7777;52.254;9.618;2022-11-20T12:10:13;16.70;;;10.60;;
15354;SDS011;7777;52.254;9.618;2022-11-20T12:16:05;13.07;;;8.80;;
15354;SDS011;7777;52.254;9.618;2022-11-20T12:18:38;13.93;;;9.20;;
15354;SDS011;7777;52.254;9.618;2022-11-20T12:30:28;13.60;;;8.60;;
15354;SDS011;7777;52.254;9.618;2022-11-20T12:41:19;16.70;;;11.00;;
15354;SDS011;7777;52.254;9.618;2022-11-20T12:53:11;18.63;;;11.57;;
15354;SDS011;7777;52.254;9.618;2022-11-20T12:59:08;18.30;;;11.57;;
15354;SDS011;7777;52.254;9.618;2022-11-20T13:02:25;16.33;;;10.77;;
15354;SDS011;7777;52.254;9.618;2022-11-20T13:08:36;16.50;;;10.00;;
15354;SDS011;7777;52.254;9.618;2022-11-20T13:14:37;17.03;;;11.93;;
15354;SDS011;7777;52.254;9.618;2022-11-20T13:17:12;16.40;;;11.83;;
15354;SDS011;7777;52.254;9.618;2022-11-20T13:19:50;19.47;;;11.97;;
15354;SDS011;7777;52.254;9.618;2022-11-20T13:22:26;17.27;;;11.60;;
15354;SDS011;7777;52.254;9.618;2022-11-20T13:24:56;13.13;;;9.60;;
15354;SDS011;7777;52.254;9.618;2022-11-20T13:27:22;17.50;;;10.70;;
15354;SDS011;7777;52.254;9.618;2022-11-20T13:32:49;16.40;;;10.93;;
15354;SDS011;7777;52.254;9.618;2022-11-20T13:35:32;19.23;;;10.43;;
15354;SDS011;7777;52.254;9.618;2022-11-20T13:38:08;18.57;;;11.00;;
15354;SDS011;7777;52.254;9.618;2022-11-20T13:43:48;13.00;;;8.97;;
15354;SDS011;7777;52.254;9.618;2022-11-20T13:46:14;13.97;;;9.00;;
15354;SDS011;7777;52.254;9.618;2022-11-20T13:48:41;13.20;;;9.37;;
15354;SDS011;7777;52.254;9.618;2022-11-20T14:02:35;13.93;;;8.50;;
15354;SDS011;7777;52.254;9.618;2022-11-20T14:05:01;15.27;;;9.10;;
15354;SDS011;7777;52.254;9.618;2022-11-20T14:07:34;15.17;;;9.23;;
15354;SDS011;7777;52.254;9.618;2022-11-20T14:10:04;15.23;;;10.50;;
15354;SDS011;7777;52.254;9.618;2022-11-20T14:12:31;16.90;;;10.73;;
15354;SDS011;7777;52.254;9.618;2022-11-20T14:15:01;14.53;;;9.47;;
15354;SDS011;7777;52.254;9.618;2022-11-20T14:17:32;13.80;;;10.17;;
15354;SDS011;7777;52.254;9.618;2022-11-20T14:20:22;12.17;;;9.03;;
15354;SDS011;7777;52.254;9.618;2022-11-20T14:22:50;16.60;;;10.00;;
15354;SDS011;7777;52.254;9.618;2022-11-20T14:27:50;14.60;;;9.17;;
15354;SDS011;7777;52.254;9.618;2022-11-20T14:30:19;14.67;;;9.53;;
15354;SDS011;7777;52.254;9.618;2022-11-20T14:32:48;15.97;;;10.47;;
15354;SDS011;7777;52.254;9.618;2022-11-20T14:35:26;15.87;;;9.93;;
15354;SDS011;7777;52.254;9.618;2022-11-20T14:37:56;18.97;;;11.47;;
15354;SDS011;7777;52.254;9.618;2022-11-20T14:42:54;17.03;;;10.37;;
15354;SDS011;7777;52.254;9.618;2022-11-20T14:45:21;16.37;;;11.00;;
15354;SDS011;7777;52.254;9.618;2022-11-20T14:47:49;16.63;;;10.77;;
15354;SDS011;7777;52.254;9.618;2022-11-20T14:50:19;16.87;;;10.73;;
15354;SDS011;7777;52.254;9.618;2022-11-20T14:52:56;17.67;;;11.03;;
15354;SDS011;7777;52.254;9.618;2022-11-20T14:55:29;15.30;;;9.87;;
15354;SDS011;7777;52.254;9.618;2022-11-20T14:58:19;14.10;;;9.90;;
15354;SDS011;7777;52.254;9.618;2022-11-20T15:00:59;19.03;;;10.50;;
15354;SDS011;7777;52.254;9.618;2022-11-20T15:03:31;14.67;;;10.10;;
15354;SDS011;7777;52.254;9.618;2022-11-20T15:06:02;14.33;;;10.13;;
15354;SDS011;7777;52.254;9.618;2022-11-20T15:08:29;16.53;;;11.40;;
15354;SDS011;7777;52.254;9.618;2022-11-20T15:10:56;17.67;;;10.93;;
15354;SDS011;7777;52.254;9.618;2022-11-20T15:13:36;15.67;;;10.40;;
15354;SDS011;7777;52.254;9.618;2022-11-20T15:16:04;18.63;;;11.43;;
15354;SDS011;7777;52.254;9.618;2022-11-20T15:18:43;17.93;;;11.80;;
15354;SDS011;7777;52.254;9.618;2022-11-20T15:21:13;16.43;;;11.83;;
15354;SDS011;7777;52.254;9.618;2022-11-20T15:23:42;15.97;;;11.33;;
15354;SDS011;7777;52.254;9.618;2022-11-20T15:26:08;17.93;;;12.33;;
15354;SDS011;7777;52.254;9.618;2022-11-20T15:28:37;19.60;;;13.00;;
15354;SDS011;7777;52.254;9.618;2022-11-20T15:31:06;16.20;;;11.13;;
15354;SDS011;7777;52.254;9.618;2022-11-20T15:33:32;19.03;;;12.27;;
15354;SDS011;7777;52.254;9.618;2022-11-20T15:35:59;22.50;;;15.17;;
15354;SDS011;7777;52.254;9.618;2022-11-20T15:38:26;24.83;;;17.33;;
15354;SDS011;7777;52.254;9.618;2022-11-20T15:46:13;24.30;;;14.77;;
15354;SDS011;7777;52.254;9.618;2022-11-20T15:48:45;18.13;;;13.33;;
15354;SDS011;7777;52.254;9.618;2022-11-20T15:53:56;19.10;;;12.90;;
15354;SDS011;7777;52.254;9.618;2022-11-20T15:56:22;19.97;;;13.40;;
15354;SDS011;7777;52.254;9.618;2022-11-20T15:58:48;20.67;;;12.73;;
15354;SDS011;7777;52.254;9.618;2022-11-20T16:01:18;22.47;;;13.63;;
15354;SDS011;7777;52.254;9.618;2022-11-20T16:03:46;22.70;;;14.80;;
15354;SDS011;7777;52.254;9.618;2022-11-20T16:06:13;20.27;;;14.00;;
15354;SDS011;7777;52.254;9.618;2022-11-20T16:08:41;22.40;;;14.33;;
15354;SDS011;7777;52.254;9.618;2022-11-20T16:11:08;21.23;;;14.03;;
15354;SDS011;7777;52.254;9.618;2022-11-20T16:13:37;18.53;;;12.07;;
15354;SDS011;7777;52.254;9.618;2022-11-20T16:16:23;18.27;;;12.13;;
15354;SDS011;7777;52.254;9.618;2022-11-20T16:18:55;18.23;;;11.63;;
15354;SDS011;7777;52.254;9.618;2022-11-20T16:21:22;15.43;;;10.90;;
15354;SDS011;7777;52.254;9.618;2022-11-20T16:24:00;16.80;;;11.40;;
15354;SDS011;7777;52.254;9.618;2022-11-20T16:26:29;17.00;;;11.43;;
15354;SDS011;7777;52.254;9.618;2022-11-20T16:28:55;17.00;;;11.33;;
15354;SDS011;7777;52.254;9.618;2022-11-20T16:31:21;15.63;;;10.13;;
15354;SDS011;7777;52.254;9.618;2022-11-20T16:33:54;17.03;;;11.60;;
15354;SDS011;7777;52.254;9.618;2022-11-20T16:36:23;13.50;;;9.33;;
15354;SDS011;7777;52.254;9.618;2022-11-20T16:38:54;13.67;;;9.13;;
15354;SDS011;7777;52.254;9.618;2022-11-20T16:41:22;17.07;;;9.97;;
15354;SDS011;7777;52.254;9.618;2022-11-20T16:43:57;17.70;;;10.77;;
15354;SDS011;7777;52.254;9.618;2022-11-20T16:46:26;16.23;;;10.17;;
15354;SDS011;7777;52.254;9.618;2022-11-20T16:48:57;14.83;;;10.67;;
15354;SDS011;7777;52.254;9.618;2022-11-20T16:51:26;17.33;;;10.90;;
15354;SDS011;7777;52.254;9.618;2022-11-20T16:53:54;17.93;;;12.13;;
15354;SDS011;7777;52.254;9.618;2022-11-20T16:56:21;19.27;;;12.10;;
15354;SDS011;7777;52.254;9.618;2022-11-20T16:58:52;19.57;;;13.00;;
15354;SDS011;7777;52.254;9.618;2022-11-20T17:01:20;19.70;;;12.77;;
15354;SDS011;7777;52.254;9.618;2022-11-20T17:06:23;18.77;;;12.33;;
15354;SDS011;7777;52.254;9.618;2022-11-20T17:08:52;16.43;;;11.73;;
15354;SDS011;7777;52.254;9.618;2022-11-20T17:11:19;18.47;;;13.17;;
15354;SDS011;7777;52.254;9.618;2022-11-20T17:13:45;18.70;;;12.70;;
15354;SDS011;7777;52.254;9.618;2022-11-20T17:16:12;17.87;;;12.77;;
15354;SDS011;7777;52.254;9.618;2022-11-20T17:18:42;17.47;;;11.73;;
15354;SDS011;7777;52.254;9.618;2022-11-20T17:21:08;18.87;;;12.67;;
15354;SDS011;7777;52.254;9.618;2022-11-20T17:23:37;18.13;;;12.20;;
15354;SDS011;7777;52.254;9.618;2022-11-20T17:28:41;18.27;;;11.43;;
15354;SDS011;7777;52.254;9.618;2022-11-20T17:31:09;20.17;;;12.03;;
15354;SDS011;7777;52.254;9.618;2022-11-20T17:33:41;20.20;;;12.87;;
15354;SDS011;7777;52.254;9.618;2022-11-20T17:36:10;18.60;;;12.10;;